Time;durP1;ratioP1;P1;durP2;ratioP2;P2;SDS_P1;SDS_P2;PMS_P1;PMS_P2;Temp;Humidity;BMP_temperature;BMP_pressure;BME280_temperature;BME280_humidity;BME280_pressure;Samples;Min_cycle;Max_cycle;Signal;HPM_P1;HPM_P2
2023/09/23 00:01:49;;;;;;;42.28;18.02;;;;;;;-145.67;100.00;66521.78;6274340;22;20026;-89
2023/09/23 00:04:16;;;;;;;34.50;15.38;;;;;;;-145.67;100.00;66521.78;6272376;22;20015;-88
2023/09/23 00:06:42;;;;;;;40.00;15.70;;;;;;;-145.67;100.00;66521.78;6246228;22;20008;-89
2023/09/23 00:09:08;;;;;;;20.77;9.88;;;;;;;-145.67;100.00;66521.78;6274078;22;20054;-89
2023/09/23 00:11:37;;;;;;;29.90;13.90;;;;;;;-145.67;100.00;66521.78;6274177;22;20078;-91
2023/09/23 00:14:04;;;;;;;46.03;18.10;;;;;;;-145.67;100.00;66521.78;6247387;22;20061;-91
2023/09/23 00:16:29;;;;;;;41.50;19.17;;;;;;;-145.67;100.00;66521.78;6271464;22;20437;-92
2023/09/23 00:18:56;;;;;;;37.05;16.08;;;;;;;-145.67;100.00;66521.78;6271828;22;20007;-91
2023/09/23 00:21:22;;;;;;;37.70;15.63;;;;;;;-145.67;100.00;66521.78;6245273;22;20030;-91
2023/09/23 00:23:47;;;;;;;41.42;17.08;;;;;;;-145.67;100.00;66521.78;6245389;22;20409;-91
2023/09/23 00:26:17;;;;;;;50.78;18.35;;;;;;;-145.67;100.00;66521.78;6244734;22;20026;-90
2023/09/23 00:28:46;;;;;;;45.05;16.90;;;;;;;-145.67;100.00;66521.78;6244921;22;20341;-91
2023/09/23 00:31:14;;;;;;;52.45;18.80;;;;;;;-145.67;100.00;66521.78;6245285;22;20031;-91
2023/09/23 00:33:40;;;;;;;52.92;19.73;;;;;;;-145.67;100.00;66521.78;6272853;22;20029;-91
2023/09/23 00:36:07;;;;;;;43.67;18.15;;;;;;;-145.67;100.00;66521.78;6272677;22;19995;-91
2023/09/23 00:38:32;;;;;;;59.75;21.02;;;;;;;-145.67;100.00;66521.78;6245985;22;19999;-91
2023/09/23 00:40:58;;;;;;;60.00;21.15;;;;;;;-145.67;100.00;66521.78;6273062;22;20011;-90
2023/09/23 00:43:24;;;;;;;56.55;20.42;;;;;;;-145.67;100.00;66521.78;6245218;22;20003;-92
2023/09/23 00:45:51;;;;;;;61.80;23.42;;;;;;;-145.67;100.00;66521.78;6246054;22;20019;-90
2023/09/23 00:48:20;;;;;;;67.45;23.95;;;;;;;-145.67;100.00;66521.78;6274202;22;20046;-91
2023/09/23 00:50:47;;;;;;;59.45;20.38;;;;;;;-145.67;100.00;66521.78;6221211;22;20061;-91
2023/09/23 00:53:13;;;;;;;50.90;19.52;;;;;;;-145.67;100.00;66521.78;6220594;22;20007;-92
2023/09/23 00:55:47;;;;;;;52.28;17.63;;;;;;;-145.67;100.00;66521.78;6245948;22;20317;-92
2023/09/23 00:58:16;;;;;;;52.72;19.25;;;;;;;-145.67;100.00;66521.78;6221763;22;20034;-92
2023/09/23 01:00:48;;;;;;;59.15;21.65;;;;;;;-145.67;100.00;66521.78;6245832;22;20003;-92
2023/09/23 01:03:17;;;;;;;65.40;21.75;;;;;;;-145.67;100.00;66521.78;6246577;22;20462;-91
2023/09/23 01:05:45;;;;;;;64.22;23.73;;;;;;;-145.67;100.00;66521.78;6252298;22;20012;-92
2023/09/23 01:08:11;;;;;;;80.75;25.70;;;;;;;-145.67;100.00;66521.78;6228974;22;19999;-92
2023/09/23 01:10:38;;;;;;;76.93;26.23;;;;;;;-145.67;100.00;66521.78;6250150;22;20023;-93
2023/09/23 01:13:06;;;;;;;66.45;22.73;;;;;;;-145.67;100.00;66521.78;6253271;22;20000;-91
2023/09/23 01:15:34;;;;;;;61.67;22.35;;;;;;;-145.67;100.00;66521.78;6250965;22;20029;-93
2023/09/23 01:18:00;;;;;;;71.35;26.20;;;;;;;-145.67;100.00;66521.78;6246717;22;19999;-92
2023/09/23 01:20:25;;;;;;;66.55;23.95;;;;;;;-145.67;100.00;66521.78;6222877;22;20018;-92
2023/09/23 01:22:52;;;;;;;61.95;23.77;;;;;;;-145.67;100.00;66521.78;6225956;22;20011;-91
2023/09/23 01:25:18;;;;;;;66.03;23.65;;;;;;;-145.67;100.00;66521.78;6256273;22;20086;-91
2023/09/23 01:27:43;;;;;;;65.50;25.48;;;;;;;-145.67;100.00;66521.78;6294800;22;20008;-93
2023/09/23 01:30:11;;;;;;;61.80;25.00;;;;;;;-145.67;100.00;66521.78;6299082;22;19998;-93
2023/09/23 01:32:48;;;;;;;68.18;25.55;;;;;;;-145.67;100.00;66521.78;6297682;22;20008;-91
2023/09/23 01:35:16;;;;;;;41.33;18.17;;;;;;;-145.67;100.00;66521.78;6254925;22;20006;-92
2023/09/23 01:37:45;;;;;;;38.78;14.82;;;;;;;-145.67;100.00;66521.78;6255342;22;20027;-93
2023/09/23 01:40:17;;;;;;;26.38;11.80;;;;;;;-145.67;100.00;66521.78;6260825;22;20002;-91
2023/09/23 01:42:48;;;;;;;30.70;12.82;;;;;;;-145.67;100.00;66521.78;6253753;22;19996;-94
2023/09/23 01:45:14;;;;;;;29.52;12.90;;;;;;;-145.67;100.00;66521.78;6277346;22;20086;-91
2023/09/23 01:47:41;;;;;;;17.80;8.27;;;;;;;-145.67;100.00;66521.78;6248302;22;20046;-92
2023/09/23 01:50:09;;;;;;;18.85;8.00;;;;;;;-145.67;100.00;66521.78;6249881;22;20400;-92
2023/09/23 01:52:36;;;;;;;21.17;8.15;;;;;;;-145.67;100.00;66521.78;6271913;22;20003;-92
2023/09/23 01:55:03;;;;;;;16.23;6.25;;;;;;;-145.67;100.00;66521.78;6254597;22;20003;-92
2023/09/23 01:57:28;;;;;;;15.05;5.43;;;;;;;-145.67;100.00;66521.78;6250213;22;20058;-95
2023/09/23 01:59:54;;;;;;;12.27;5.38;;;;;;;-145.67;100.00;66521.78;6249060;22;19999;-93
2023/09/23 02:02:19;;;;;;;17.45;7.10;;;;;;;-145.67;100.00;66521.78;6248639;22;20030;-91
2023/09/23 02:04:47;;;;;;;19.88;9.25;;;;;;;-145.67;100.00;66521.78;6275879;22;20004;-91
2023/09/23 02:07:13;;;;;;;21.48;8.40;;;;;;;-145.67;100.00;66521.78;6248640;22;20006;-92
2023/09/23 02:09:39;;;;;;;27.63;10.43;;;;;;;-145.67;100.00;66521.78;6248871;22;20074;-92
2023/09/23 02:12:04;;;;;;;32.58;12.80;;;;;;;-145.67;100.00;66521.78;6275200;22;20385;-92
2023/09/23 02:14:30;;;;;;;25.30;11.10;;;;;;;-145.67;100.00;66521.78;6248706;22;20008;-93
2023/09/23 02:16:56;;;;;;;39.20;14.95;;;;;;;-145.67;100.00;66521.78;6275316;22;19993;-91
2023/09/23 02:19:21;;;;;;;21.90;9.55;;;;;;;-145.67;100.00;66521.78;6247748;22;20027;-91
2023/09/23 02:21:48;;;;;;;31.17;12.15;;;;;;;-145.67;100.00;66521.78;6275986;22;20030;-90
2023/09/23 02:24:14;;;;;;;31.00;11.82;;;;;;;-145.67;100.00;66521.78;6246175;22;20000;-90
2023/09/23 02:26:39;;;;;;;25.35;10.32;;;;;;;-145.67;100.00;66521.78;6196783;22;20050;-90
2023/09/23 02:29:06;;;;;;;24.48;11.55;;;;;;;-145.67;100.00;66521.78;6273784;22;20010;-89
2023/09/23 02:32:30;;;;;;;22.67;10.57;;;;;;;-145.67;100.00;66521.78;6246709;22;20080;-90
2023/09/23 02:35:54;;;;;;;23.67;10.57;;;;;;;-145.67;100.00;66521.78;6247196;22;20012;-90
2023/09/23 02:39:21;;;;;;;19.75;10.30;;;;;;;-145.67;100.00;66521.78;6274289;22;20011;-90
2023/09/23 02:42:46;;;;;;;36.80;16.48;;;;;;;-145.67;100.00;66521.78;6247356;22;20034;-91
2023/09/23 02:46:11;;;;;;;45.75;20.08;;;;;;;-145.67;100.00;66521.78;6248092;22;20008;-90
2023/09/23 02:49:35;;;;;;;31.40;14.30;;;;;;;-145.67;100.00;66521.78;6272657;22;20090;-89
2023/09/23 02:52:59;;;;;;;32.97;14.63;;;;;;;-145.67;100.00;66521.78;6273041;22;20379;-87
2023/09/23 02:56:23;;;;;;;8.98;5.05;;;;;;;-145.67;100.00;66521.78;6274400;22;20004;-85
2023/09/23 02:59:56;;;;;;;14.88;8.18;;;;;;;-145.67;100.00;66521.78;6272666;22;20004;-88
2023/09/23 03:03:20;;;;;;;13.38;7.50;;;;;;;-145.67;100.00;66521.78;6272265;22;20038;-90
2023/09/23 03:06:49;;;;;;;9.60;2.45;;;;;;;-145.67;100.00;66521.78;6272444;22;20432;-89
2023/09/23 03:10:18;;;;;;;8.40;2.13;;;;;;;-145.67;100.00;66521.78;6272446;22;20522;-89
2023/09/23 03:13:43;;;;;;;10.00;2.72;;;;;;;-145.67;100.00;66521.78;6273158;22;20042;-90
2023/09/23 03:17:09;;;;;;;20.73;10.13;;;;;;;-145.67;100.00;66521.78;6273634;22;20030;-90
2023/09/23 03:20:34;;;;;;;38.63;15.60;;;;;;;-145.67;100.00;66521.78;6271978;22;20009;-88
2023/09/23 03:23:58;;;;;;;41.13;15.85;;;;;;;-145.67;100.00;66521.78;6249198;22;20023;-89
2023/09/23 03:27:25;;;;;;;37.45;14.05;;;;;;;-145.67;100.00;66521.78;6247337;22;20030;-89
2023/09/23 03:30:49;;;;;;;30.88;13.85;;;;;;;-145.67;100.00;66521.78;6274841;22;20439;-89
2023/09/23 03:34:14;;;;;;;35.70;13.63;;;;;;;-145.67;100.00;66521.78;6247404;22;20074;-89
2023/09/23 03:37:38;;;;;;;38.35;14.45;;;;;;;-145.67;100.00;66521.78;6246309;22;20432;-89
2023/09/23 03:41:03;;;;;;;32.40;14.25;;;;;;;-145.67;100.00;66521.78;6245322;22;20003;-88
2023/09/23 03:44:27;;;;;;;44.42;18.73;;;;;;;-145.67;100.00;66521.78;6272409;22;20037;-89
2023/09/23 03:47:51;;;;;;;51.97;22.90;;;;;;;-145.67;100.00;66521.78;6273014;22;20214;-89
2023/09/23 03:51:14;;;;;;;47.35;22.10;;;;;;;-145.67;100.00;66521.78;6245197;22;20498;-89
2023/09/23 03:54:38;;;;;;;13.80;4.65;;;;;;;-145.67;100.00;66521.78;6272881;22;20010;-86
2023/09/23 03:58:04;;;;;;;7.15;2.33;;;;;;;-145.67;100.00;66521.78;6244874;22;20306;-88
2023/09/23 04:01:28;;;;;;;9.63;2.30;;;;;;;-145.67;100.00;66521.78;6272103;22;20030;-85
2023/09/23 04:04:53;;;;;;;7.10;2.20;;;;;;;-145.67;100.00;66521.78;6271568;22;20094;-84
2023/09/23 04:08:20;;;;;;;11.10;2.50;;;;;;;-145.67;100.00;66521.78;6271346;22;20022;-85
2023/09/23 04:11:46;;;;;;;9.82;2.17;;;;;;;-145.67;100.00;66521.78;6243788;22;20000;-86
2023/09/23 04:15:10;;;;;;;11.07;2.55;;;;;;;-145.67;100.00;66521.78;6271658;22;20003;-85
2023/09/23 04:18:34;;;;;;;11.60;2.33;;;;;;;-145.67;100.00;66521.78;6271522;22;20083;-85
2023/09/23 04:21:58;;;;;;;9.65;2.25;;;;;;;-145.67;100.00;66521.78;6244910;22;20004;-85
2023/09/23 04:25:22;;;;;;;9.77;2.00;;;;;;;-145.67;100.00;66521.78;6270475;22;20000;-85
2023/09/23 04:28:47;;;;;;;5.18;2.00;;;;;;;-145.67;100.00;66521.78;6271153;22;20055;-85
2023/09/23 04:32:12;;;;;;;8.25;1.75;;;;;;;-145.67;100.00;66521.78;6271250;22;20441;-85
2023/09/23 04:35:36;;;;;;;8.40;2.00;;;;;;;-145.67;100.00;66521.78;6271414;22;20010;-85
2023/09/23 04:39:01;;;;;;;6.50;2.00;;;;;;;-145.67;100.00;66521.78;6270989;22;20041;-86
2023/09/23 04:42:25;;;;;;;7.60;1.92;;;;;;;-145.67;100.00;66521.78;6271190;22;20049;-84
2023/09/23 04:45:50;;;;;;;6.35;2.00;;;;;;;-145.67;100.00;66521.78;6271469;22;20007;-84
2023/09/23 04:49:15;;;;;;;7.85;1.75;;;;;;;-145.67;100.00;66521.78;6271130;22;20380;-84
2023/09/23 04:52:40;;;;;;;10.38;2.10;;;;;;;-145.67;100.00;66521.78;6271590;22;20050;-85
2023/09/23 04:56:08;;;;;;;8.18;1.60;;;;;;;-145.67;100.00;66521.78;6270663;22;20054;-85
2023/09/23 04:59:32;;;;;;;8.93;1.90;;;;;;;-145.67;100.00;66521.78;6243710;22;20082;-85
2023/09/23 05:02:56;;;;;;;10.15;2.08;;;;;;;-145.67;100.00;66521.78;6239476;23;20016;-85
2023/09/23 05:06:20;;;;;;;8.80;1.50;;;;;;;-145.67;100.00;66521.78;6240535;22;20314;-85
2023/09/23 05:09:45;;;;;;;7.35;1.90;;;;;;;-145.67;100.00;66521.78;6239658;22;20004;-87
2023/09/23 05:13:09;;;;;;;8.77;1.80;;;;;;;-145.67;100.00;66521.78;6240434;22;20008;-86
2023/09/23 05:16:33;;;;;;;6.35;1.80;;;;;;;-145.67;100.00;66521.78;6213734;23;20110;-85
2023/09/23 05:19:58;;;;;;;9.95;1.50;;;;;;;-145.67;100.00;66521.78;6240468;23;20006;-85
2023/09/23 05:23:25;;;;;;;10.60;1.70;;;;;;;-145.67;100.00;66521.78;6241082;23;20004;-88
2023/09/23 05:26:49;;;;;;;9.57;1.80;;;;;;;-145.67;100.00;66521.78;6243338;22;20044;-85
2023/09/23 05:29:14;;;;;;;9.13;1.40;;;;;;;-145.67;100.00;66521.78;6240248;23;20429;-86
2023/09/23 05:31:40;;;;;;;9.57;1.67;;;;;;;-145.67;100.00;66521.78;6241798;23;20008;-86
2023/09/23 05:34:06;;;;;;;11.77;2.00;;;;;;;-145.67;100.00;66521.78;6243601;23;20046;-86
2023/09/23 05:36:32;;;;;;;4.72;1.23;;;;;;;-145.67;100.00;66521.78;6242647;23;20026;-87
2023/09/23 05:38:57;;;;;;;5.75;1.60;;;;;;;-145.67;100.00;66521.78;6242032;23;20418;-87
2023/09/23 05:41:24;;;;;;;9.25;1.58;;;;;;;-145.67;100.00;66521.78;6242368;23;20012;-86
2023/09/23 05:43:51;;;;;;;6.65;1.42;;;;;;;-145.67;100.00;66521.78;6241322;23;20004;-86
2023/09/23 05:46:17;;;;;;;4.38;1.40;;;;;;;-145.67;100.00;66521.78;6242187;23;20004;-87
2023/09/23 05:48:42;;;;;;;7.18;1.65;;;;;;;-145.67;100.00;66521.78;6242180;23;20008;-86
2023/09/23 05:51:08;;;;;;;7.85;2.05;;;;;;;-145.67;100.00;66521.78;6240365;23;20303;-87
2023/09/23 05:53:33;;;;;;;10.50;2.20;;;;;;;-145.67;100.00;66521.78;6242081;23;20012;-87
2023/09/23 05:56:00;;;;;;;10.95;2.15;;;;;;;-145.67;100.00;66521.78;6242879;23;20000;-87
2023/09/23 05:58:25;;;;;;;5.50;1.48;;;;;;;-145.67;100.00;66521.78;6240778;23;20364;-86
2023/09/23 06:00:51;;;;;;;10.30;1.70;;;;;;;-145.67;100.00;66521.78;6242492;23;20000;-87
2023/09/23 06:03:17;;;;;;;7.35;1.40;;;;;;;-145.67;100.00;66521.78;6271615;22;20069;-87
2023/09/23 06:05:45;;;;;;;12.00;2.40;;;;;;;-145.67;100.00;66521.78;6272040;22;20011;-87
2023/09/23 06:08:12;;;;;;;6.47;1.50;;;;;;;-145.67;100.00;66521.78;6273316;22;20078;-87
2023/09/23 06:10:38;;;;;;;6.28;1.50;;;;;;;-145.67;100.00;66521.78;6272441;22;20067;-87
2023/09/23 06:13:07;;;;;;;7.20;1.60;;;;;;;-145.67;100.00;66521.78;6272299;22;20002;-86
2023/09/23 06:15:33;;;;;;;6.32;1.40;;;;;;;-145.67;100.00;66521.78;6272662;22;20023;-87
2023/09/23 06:17:58;;;;;;;4.45;1.42;;;;;;;-145.67;100.00;66521.78;6245339;22;20006;-87
2023/09/23 06:20:24;;;;;;;8.52;1.58;;;;;;;-145.67;100.00;66521.78;6272311;22;20082;-87
2023/09/23 06:22:49;;;;;;;10.43;1.98;;;;;;;-145.67;100.00;66521.78;6272611;22;20011;-87
2023/09/23 06:25:14;;;;;;;8.00;1.83;;;;;;;-145.67;100.00;66521.78;6272868;22;20003;-87
2023/09/23 06:27:40;;;;;;;7.35;1.70;;;;;;;-145.67;100.00;66521.78;6245495;22;20008;-86
2023/09/23 06:30:06;;;;;;;11.57;2.85;;;;;;;-145.67;100.00;66521.78;6272470;22;20031;-88
2023/09/23 06:32:32;;;;;;;21.25;3.88;;;;;;;-145.67;100.00;66521.78;6272356;22;20086;-89
2023/09/23 06:34:57;;;;;;;15.00;3.08;;;;;;;-145.67;100.00;66521.78;6246864;22;20015;-92
2023/09/23 06:37:23;;;;;;;13.38;2.95;;;;;;;-145.67;100.00;66521.78;6277375;22;20116;-92
2023/09/23 06:39:48;;;;;;;13.20;3.03;;;;;;;-145.67;100.00;66521.78;6246791;22;20425;-92
2023/09/23 06:42:14;;;;;;;27.33;4.07;;;;;;;-145.67;100.00;66521.78;6273812;22;20003;-93
2023/09/23 06:44:39;;;;;;;14.82;3.47;;;;;;;-145.67;100.00;66521.78;6248707;22;20008;-92
2023/09/23 06:47:05;;;;;;;18.13;3.63;;;;;;;-145.67;100.00;66521.78;6247087;22;20029;-92
2023/09/23 06:49:30;;;;;;;13.90;2.80;;;;;;;-145.67;100.00;66521.78;6245423;22;20332;-92
2023/09/23 06:51:55;;;;;;;9.10;2.30;;;;;;;-145.67;100.00;66521.78;6274015;22;20052;-91
2023/09/23 06:54:21;;;;;;;9.27;2.47;;;;;;;-145.67;100.00;66521.78;6274000;22;19999;-93
2023/09/23 06:56:46;;;;;;;10.25;2.75;;;;;;;-145.67;100.00;66521.78;6247695;22;20003;-93
2023/09/23 06:59:12;;;;;;;9.55;2.67;;;;;;;-145.67;100.00;66521.78;6275025;22;20003;-91
2023/09/23 07:01:37;;;;;;;8.43;2.53;;;;;;;-145.67;100.00;66521.78;6274204;22;20091;-92
2023/09/23 07:04:04;;;;;;;10.93;3.22;;;;;;;-145.67;100.00;66521.78;6274827;22;20047;-93
2023/09/23 07:06:29;;;;;;;9.18;2.85;;;;;;;-145.67;100.00;66521.78;6251437;22;20004;-92
2023/09/23 07:08:55;;;;;;;6.88;2.03;;;;;;;-145.67;100.00;66521.78;6249376;22;20246;-91
2023/09/23 07:11:20;;;;;;;9.63;1.90;;;;;;;-145.67;100.00;66521.78;6278095;22;20007;-92
2023/09/23 07:13:46;;;;;;;12.45;2.08;;;;;;;-145.67;100.00;66521.78;6289774;22;20011;-91
2023/09/23 07:16:14;;;;;;;11.40;2.80;;;;;;;-145.67;100.00;66521.78;6253046;22;20015;-93
2023/09/23 07:18:39;;;;;;;16.15;2.80;;;;;;;-145.67;100.00;66521.78;6273315;22;20444;-91
2023/09/23 07:21:05;;;;;;;11.60;1.80;;;;;;;-145.67;100.00;66521.78;6272320;22;20056;-86
2023/09/23 07:23:30;;;;;;;13.27;2.28;;;;;;;-145.67;100.00;66521.78;6245770;22;20008;-87
2023/09/23 07:25:56;;;;;;;7.47;1.77;;;;;;;-145.67;100.00;66521.78;6245358;22;20004;-87
2023/09/23 07:28:21;;;;;;;8.77;1.88;;;;;;;-145.67;100.00;66521.78;6272082;22;20087;-87
2023/09/23 07:30:46;;;;;;;9.82;2.15;;;;;;;-145.67;100.00;66521.78;6271852;22;20038;-88
2023/09/23 07:33:12;;;;;;;6.55;1.67;;;;;;;-145.67;100.00;66521.78;6272839;22;20014;-88
2023/09/23 07:35:37;;;;;;;10.85;2.13;;;;;;;-145.67;100.00;66521.78;6272364;22;20416;-88
2023/09/23 07:38:03;;;;;;;11.07;2.17;;;;;;;-145.67;100.00;66521.78;6242773;22;19999;-87
2023/09/23 07:40:29;;;;;;;11.60;1.90;;;;;;;-145.67;100.00;66521.78;6269967;22;20010;-87
2023/09/23 07:42:55;;;;;;;10.95;2.08;;;;;;;-145.67;100.00;66521.78;6242854;22;20011;-87
2023/09/23 07:45:21;;;;;;;12.70;2.00;;;;;;;-145.67;100.00;66521.78;6244143;22;20053;-87
2023/09/23 07:47:47;;;;;;;11.35;1.77;;;;;;;-145.67;100.00;66521.78;6242341;22;20000;-87
2023/09/23 07:50:13;;;;;;;11.90;1.90;;;;;;;-145.67;100.00;66521.78;6271313;22;20440;-87
2023/09/23 07:52:38;;;;;;;8.48;1.85;;;;;;;-145.67;100.00;66521.78;6272128;22;20008;-87
2023/09/23 07:55:07;;;;;;;11.85;1.80;;;;;;;-145.67;100.00;66521.78;6244507;22;20413;-86
2023/09/23 07:57:32;;;;;;;9.10;1.42;;;;;;;-145.67;100.00;66521.78;6245421;22;19995;-86
2023/09/23 08:00:01;;;;;;;5.88;1.30;;;;;;;-145.67;100.00;66521.78;6271798;22;20010;-84
2023/09/23 08:02:27;;;;;;;4.05;1.20;;;;;;;-145.67;100.00;66521.78;6243877;22;20008;-85
2023/09/23 08:04:52;;;;;;;6.22;1.10;;;;;;;-145.67;100.00;66521.78;6272071;22;20022;-85
2023/09/23 08:07:18;;;;;;;9.05;1.20;;;;;;;-145.67;100.00;66521.78;6271194;22;20007;-85
2023/09/23 08:09:43;;;;;;;7.80;1.35;;;;;;;-145.67;100.00;66521.78;6271461;22;20006;-86
2023/09/23 08:12:09;;;;;;;9.32;1.35;;;;;;;-145.67;100.00;66521.78;6276965;22;20004;-85
2023/09/23 08:14:35;;;;;;;6.03;1.27;;;;;;;-145.67;100.00;66521.78;6273844;22;20057;-87
2023/09/23 08:17:00;;;;;;;8.15;1.45;;;;;;;-145.67;100.00;66521.78;6245288;22;20003;-85
2023/09/23 08:19:26;;;;;;;10.27;1.13;;;;;;;-145.67;100.00;66521.78;6219283;22;19999;-86
2023/09/23 08:21:51;;;;;;;8.02;1.33;;;;;;;-145.67;100.00;66521.78;6245217;22;20004;-86
2023/09/23 08:24:17;;;;;;;6.85;1.30;;;;;;;-145.67;100.00;66521.78;6275933;22;20079;-84
2023/09/23 08:26:43;;;;;;;8.10;0.93;;;;;;;-145.67;100.00;66521.78;6275107;22;20082;-84
2023/09/23 08:29:09;;;;;;;5.82;0.98;;;;;;;-145.67;100.00;66521.78;6243827;22;20532;-84
2023/09/23 08:31:35;;;;;;;6.40;0.93;;;;;;;-145.67;100.00;66521.78;6270410;22;20031;-85
2023/09/23 08:34:00;;;;;;;7.30;1.10;;;;;;;-145.67;100.00;66521.78;6271006;22;20447;-84
2023/09/23 08:36:25;;;;;;;5.63;1.00;;;;;;;-145.67;100.00;66521.78;6270900;22;19995;-85
2023/09/23 08:38:51;;;;;;;4.03;0.90;;;;;;;-145.67;100.00;66521.78;6271374;22;20421;-84
2023/09/23 08:41:21;;;;;;;9.32;1.33;;;;;;;-145.67;100.00;66521.78;6271604;22;20014;-84
2023/09/23 08:43:50;;;;;;;5.05;1.02;;;;;;;-145.67;100.00;66521.78;6244060;22;19996;-85
2023/09/23 08:46:17;;;;;;;7.57;1.00;;;;;;;-145.67;100.00;66521.78;6218146;22;20061;-88
2023/09/23 08:48:44;;;;;;;4.55;0.93;;;;;;;-145.67;100.00;66521.78;6243783;22;20027;-86
2023/09/23 08:51:11;;;;;;;10.82;1.25;;;;;;;-145.67;100.00;66521.78;6244026;22;20019;-87
2023/09/23 08:53:38;;;;;;;5.97;1.23;;;;;;;-145.67;100.00;66521.78;6243760;22;20089;-87
2023/09/23 08:56:05;;;;;;;3.75;1.02;;;;;;;-145.67;100.00;66521.78;6271825;22;19995;-87
2023/09/23 08:58:30;;;;;;;6.57;1.05;;;;;;;-145.67;100.00;66521.78;6244539;22;20004;-86
2023/09/23 09:00:56;;;;;;;6.70;1.30;;;;;;;-145.67;100.00;66521.78;6274709;22;20093;-84
2023/09/23 09:03:22;;;;;;;8.80;1.20;;;;;;;-145.67;100.00;66521.78;6253222;22;20008;-86
2023/09/23 09:05:47;;;;;;;8.48;1.20;;;;;;;-145.67;100.00;66521.78;6247136;22;20019;-86
2023/09/23 09:08:14;;;;;;;7.18;1.10;;;;;;;-145.67;100.00;66521.78;6271536;22;20090;-86
2023/09/23 09:10:40;;;;;;;6.15;1.08;;;;;;;-145.67;100.00;66521.78;6245184;22;20034;-86
2023/09/23 09:13:06;;;;;;;4.20;1.00;;;;;;;-145.67;100.00;66521.78;6244687;22;20057;-86
2023/09/23 09:15:35;;;;;;;5.10;0.90;;;;;;;-145.67;100.00;66521.78;6243987;22;20007;-86
2023/09/23 09:18:02;;;;;;;7.45;1.35;;;;;;;-145.67;100.00;66521.78;6243680;22;20000;-87
2023/09/23 09:20:28;;;;;;;4.15;1.40;;;;;;;-145.67;100.00;66521.78;6244075;22;20004;-86
2023/09/23 09:22:53;;;;;;;11.32;1.80;;;;;;;-145.67;100.00;66521.78;6243677;22;20087;-87
2023/09/23 09:25:20;;;;;;;8.00;1.27;;;;;;;-145.67;100.00;66521.78;6244308;22;20034;-87
2023/09/23 09:27:49;;;;;;;6.57;1.15;;;;;;;-145.67;100.00;66521.78;6270276;22;20433;-87
2023/09/23 09:30:14;;;;;;;4.47;1.15;;;;;;;-145.67;100.00;66521.78;6243949;22;20061;-87
2023/09/23 09:32:44;;;;;;;6.85;0.90;;;;;;;-145.67;100.00;66521.78;6243879;22;20003;-88
2023/09/23 09:35:18;;;;;;;8.85;1.38;;;;;;;-145.67;100.00;66521.78;6271256;22;20012;-85
2023/09/23 09:37:45;;;;;;;4.90;1.13;;;;;;;-145.67;100.00;66521.78;6270800;22;20000;-86
2023/09/23 09:40:17;;;;;;;4.53;1.10;;;;;;;-145.67;100.00;66521.78;6244215;22;20004;-85
2023/09/23 09:42:52;;;;;;;6.60;0.98;;;;;;;-145.67;100.00;66521.78;6270316;22;20006;-85
2023/09/23 09:45:19;;;;;;;6.50;1.05;;;;;;;-145.67;100.00;66521.78;6271153;22;20004;-86
2023/09/23 09:47:45;;;;;;;6.72;1.50;;;;;;;-145.67;100.00;66521.78;6244024;22;20061;-86
2023/09/23 09:50:14;;;;;;;7.95;1.30;;;;;;;-145.67;100.00;66521.78;6270660;22;20004;-85
2023/09/23 09:52:43;;;;;;;10.63;1.40;;;;;;;-145.67;100.00;66521.78;6243640;22;20050;-86
2023/09/23 09:55:09;;;;;;;12.15;1.35;;;;;;;-145.67;100.00;66521.78;6244841;22;20022;-85
2023/09/23 09:57:35;;;;;;;10.02;1.40;;;;;;;-145.67;100.00;66521.78;6242829;22;20426;-85
2023/09/23 10:00:15;;;;;;;9.15;1.50;;;;;;;-145.67;100.00;66521.78;6243581;22;20082;-86
2023/09/23 10:02:41;;;;;;;8.70;1.30;;;;;;;-145.67;100.00;66521.78;6221345;22;20015;-87
2023/09/23 10:05:07;;;;;;;12.02;1.50;;;;;;;-145.67;100.00;66521.78;6244483;22;20015;-87
2023/09/23 10:07:51;;;;;;;7.63;1.27;;;;;;;-145.67;100.00;66521.78;6271520;22;20046;-87
2023/09/23 10:10:16;;;;;;;10.95;1.15;;;;;;;-145.67;100.00;66521.78;6273841;22;20007;-87
2023/09/23 10:12:48;;;;;;;3.90;0.90;;;;;;;-145.67;100.00;66521.78;6273310;22;20007;-87
2023/09/23 10:15:24;;;;;;;8.30;1.02;;;;;;;-145.67;100.00;66521.78;6273200;22;20479;-87
2023/09/23 10:17:54;;;;;;;6.78;1.20;;;;;;;-145.67;100.00;66521.78;6272470;22;19999;-88
2023/09/23 10:20:20;;;;;;;6.00;0.90;;;;;;;-145.67;100.00;66521.78;6245936;22;20082;-88
2023/09/23 10:22:54;;;;;;;7.10;1.13;;;;;;;-145.67;100.00;66521.78;6272800;22;20007;-89
2023/09/23 10:25:20;;;;;;;6.60;1.35;;;;;;;-145.67;100.00;66521.78;6273492;22;20045;-88
2023/09/23 10:27:56;;;;;;;7.60;1.27;;;;;;;-145.67;100.00;66521.78;6271580;22;20367;-87
2023/09/23 10:30:26;;;;;;;8.10;1.20;;;;;;;-145.67;100.00;66521.78;6245331;22;20032;-87
2023/09/23 10:32:51;;;;;;;6.50;1.15;;;;;;;-145.67;100.00;66521.78;6272960;22;20000;-87
2023/09/23 10:35:22;;;;;;;7.78;1.25;;;;;;;-145.67;100.00;66521.78;6273173;22;20071;-88
2023/09/23 10:37:48;;;;;;;4.18;1.17;;;;;;;-145.67;100.00;66521.78;6273194;22;20003;-89
2023/09/23 10:40:14;;;;;;;5.75;1.10;;;;;;;-145.67;100.00;66521.78;6272483;22;20000;-90
2023/09/23 10:42:44;;;;;;;5.15;1.20;;;;;;;-145.67;100.00;66521.78;6246277;22;20084;-89
2023/09/23 10:45:11;;;;;;;5.20;1.17;;;;;;;-145.67;100.00;66521.78;6273133;22;20026;-88
2023/09/23 10:47:37;;;;;;;6.85;1.30;;;;;;;-145.67;100.00;66521.78;6272868;22;20011;-86
2023/09/23 10:50:05;;;;;;;9.57;1.50;;;;;;;-145.67;100.00;66521.78;6274012;22;20035;-86
2023/09/23 10:52:31;;;;;;;8.20;1.45;;;;;;;-145.67;100.00;66521.78;6272566;22;20071;-87
2023/09/23 10:54:57;;;;;;;5.45;0.90;;;;;;;-145.67;100.00;66521.78;6274871;22;19996;-87
2023/09/23 10:57:23;;;;;;;7.70;1.33;;;;;;;-145.67;100.00;66521.78;6244856;22;20004;-88
2023/09/23 10:59:50;;;;;;;17.08;2.55;;;;;;;-145.67;100.00;66521.78;6246089;22;20031;-87
2023/09/23 11:02:15;;;;;;;13.52;2.28;;;;;;;-145.67;100.00;66521.78;6272892;22;20011;-87
2023/09/23 11:04:46;;;;;;;17.23;2.35;;;;;;;-145.67;100.00;66521.78;6246112;22;20380;-86
2023/09/23 11:07:11;;;;;;;6.43;1.20;;;;;;;-145.67;100.00;66521.78;6273326;22;20008;-86
2023/09/23 11:09:37;;;;;;;11.02;1.48;;;;;;;-145.67;100.00;66521.78;6272079;22;19995;-87
2023/09/23 11:12:09;;;;;;;10.02;1.63;;;;;;;-145.67;100.00;66521.78;6271717;22;20403;-85
2023/09/23 11:14:34;;;;;;;8.77;1.30;;;;;;;-145.67;100.00;66521.78;6271714;22;20490;-85
2023/09/23 11:17:00;;;;;;;8.07;1.20;;;;;;;-145.67;100.00;66521.78;6271493;22;20029;-85
2023/09/23 11:19:26;;;;;;;5.18;1.08;;;;;;;-145.67;100.00;66521.78;6271372;22;20010;-84
2023/09/23 11:21:51;;;;;;;11.57;1.25;;;;;;;-145.67;100.00;66521.78;6245456;22;20013;-85
2023/09/23 11:24:18;;;;;;;5.13;1.10;;;;;;;-145.67;100.00;66521.78;6244757;22;20011;-84
2023/09/23 11:26:46;;;;;;;7.97;1.13;;;;;;;-145.67;100.00;66521.78;6271317;22;20053;-85
2023/09/23 11:29:12;;;;;;;5.47;1.10;;;;;;;-145.67;100.00;66521.78;6269299;22;20033;-86
2023/09/23 11:31:37;;;;;;;7.85;0.80;;;;;;;-145.67;100.00;66521.78;6271646;22;20007;-85
2023/09/23 11:34:03;;;;;;;3.00;0.60;;;;;;;-145.67;100.00;66521.78;6244534;22;20447;-85
2023/09/23 11:36:28;;;;;;;9.95;0.90;;;;;;;-145.67;100.00;66521.78;6271893;22;20375;-85
2023/09/23 11:38:54;;;;;;;10.27;1.10;;;;;;;-145.67;100.00;66521.78;6271588;22;19992;-86
2023/09/23 11:41:19;;;;;;;4.25;0.70;;;;;;;-145.67;100.00;66521.78;6272535;22;20004;-85
2023/09/23 11:43:49;;;;;;;8.13;1.33;;;;;;;-145.67;100.00;66521.78;6244536;22;20010;-86
2023/09/23 11:46:17;;;;;;;13.93;1.10;;;;;;;-145.67;100.00;66521.78;6245730;22;20041;-86
2023/09/23 11:48:47;;;;;;;6.20;1.13;;;;;;;-145.67;100.00;66521.78;6244483;22;20424;-86
2023/09/23 11:51:12;;;;;;;6.88;1.20;;;;;;;-145.67;100.00;66521.78;6272342;22;19999;-86
2023/09/23 11:53:38;;;;;;;3.83;0.80;;;;;;;-145.67;100.00;66521.78;6243396;22;20099;-86